Terminal Aerodrome Forecast
Issued by NWS

Home | Current Version | Previous Version | Text Only | Print | Product List | Glossary On
Versions: 1 2 3 4 5 6 7 8 9 10 11 12 13 14 15 16 17
000
FTUS42 KTAE 221700
TAFDHN
TAF
KDHN 221722Z 2218/2318 09007KT 4SM -RA BR OVC004
     FM230300 14004KT 2SM -RA BR OVC002
     FM230900 16003KT 1/2SM -RA FG OVC001
     FM231500 16007KT 2SM -TSRA BR OVC003CB=

USA.gov is the U.S. government's official web portal to all federal, state and local government web resources and services.